sensor_id;sensor_type;location;lat;lon;timestamp;pressure;altitude;pressure_sealevel;temperature
66170;BMP280;52971;44.024;20.456;2022-07-25T00:01:31;98178.09;;;21.41
66170;BMP280;52971;44.024;20.456;2022-07-25T00:03:56;98178.91;;;21.45
66170;BMP280;52971;44.024;20.456;2022-07-25T00:06:21;98178.13;;;21.44
66170;BMP280;52971;44.024;20.456;2022-07-25T00:08:47;98176.94;;;21.38
66170;BMP280;52971;44.024;20.456;2022-07-25T00:11:13;98183.81;;;21.36
66170;BMP280;52971;44.024;20.456;2022-07-25T00:13:38;98180.75;;;21.37
66170;BMP280;52971;44.024;20.456;2022-07-25T00:16:04;98181.19;;;21.39
66170;BMP280;52971;44.024;20.456;2022-07-25T00:18:29;98182.34;;;21.38
66170;BMP280;52971;44.024;20.456;2022-07-25T00:20:55;98179.16;;;21.32
66170;BMP280;52971;44.024;20.456;2022-07-25T00:23:20;98177.25;;;21.33
66170;BMP280;52971;44.024;20.456;2022-07-25T00:25:46;98184.16;;;21.30
66170;BMP280;52971;44.024;20.456;2022-07-25T00:28:11;98179.09;;;21.25
66170;BMP280;52971;44.024;20.456;2022-07-25T00:30:37;98179.13;;;21.29
66170;BMP280;52971;44.024;20.456;2022-07-25T00:33:02;98177.25;;;21.33
66170;BMP280;52971;44.024;20.456;2022-07-25T00:35:28;98177.84;;;21.19
66170;BMP280;52971;44.024;20.456;2022-07-25T00:37:53;98178.91;;;21.08
66170;BMP280;52971;44.024;20.456;2022-07-25T00:40:19;98166.63;;;21.10
66170;BMP280;52971;44.024;20.456;2022-07-25T00:42:44;98171.22;;;21.10
66170;BMP280;52971;44.024;20.456;2022-07-25T00:45:10;98163.94;;;21.14
66170;BMP280;52971;44.024;20.456;2022-07-25T00:47:35;98174.56;;;21.00
66170;BMP280;52971;44.024;20.456;2022-07-25T00:50:01;98172.28;;;21.02
66170;BMP280;52971;44.024;20.456;2022-07-25T00:52:26;98170.66;;;20.94
66170;BMP280;52971;44.024;20.456;2022-07-25T00:54:52;98173.75;;;20.96
66170;BMP280;52971;44.024;20.456;2022-07-25T00:57:17;98162.91;;;20.92
66170;BMP280;52971;44.024;20.456;2022-07-25T00:59:43;98169.00;;;20.85
66170;BMP280;52971;44.024;20.456;2022-07-25T01:02:09;98169.50;;;20.95
66170;BMP280;52971;44.024;20.456;2022-07-25T01:04:34;98171.28;;;20.83
66170;BMP280;52971;44.024;20.456;2022-07-25T01:07:00;98169.22;;;20.73
66170;BMP280;52971;44.024;20.456;2022-07-25T01:09:26;98172.47;;;20.56
66170;BMP280;52971;44.024;20.456;2022-07-25T01:11:51;98183.66;;;20.58
66170;BMP280;52971;44.024;20.456;2022-07-25T01:14:17;98168.56;;;20.54
66170;BMP280;52971;44.024;20.456;2022-07-25T01:16:42;98181.47;;;20.41
66170;BMP280;52971;44.024;20.456;2022-07-25T01:19:09;98180.31;;;20.38
66170;BMP280;52971;44.024;20.456;2022-07-25T01:21:37;98171.53;;;20.45
66170;BMP280;52971;44.024;20.456;2022-07-25T01:24:03;98170.00;;;20.44
66170;BMP280;52971;44.024;20.456;2022-07-25T01:26:29;98168.34;;;20.36
66170;BMP280;52971;44.024;20.456;2022-07-25T01:28:54;98170.63;;;20.34
66170;BMP280;52971;44.024;20.456;2022-07-25T01:31:21;98171.44;;;20.38
66170;BMP280;52971;44.024;20.456;2022-07-25T01:33:47;98167.59;;;20.39
66170;BMP280;52971;44.024;20.456;2022-07-25T01:36:12;98163.81;;;20.43
66170;BMP280;52971;44.024;20.456;2022-07-25T01:38:37;98163.03;;;20.43
66170;BMP280;52971;44.024;20.456;2022-07-25T01:41:03;98160.03;;;20.48
66170;BMP280;52971;44.024;20.456;2022-07-25T01:43:28;98165.41;;;20.48
66170;BMP280;52971;44.024;20.456;2022-07-25T01:45:54;98161.09;;;20.40
66170;BMP280;52971;44.024;20.456;2022-07-25T01:48:19;98159.91;;;20.41
66170;BMP280;52971;44.024;20.456;2022-07-25T01:50:45;98162.00;;;20.25
66170;BMP280;52971;44.024;20.456;2022-07-25T01:53:10;98161.66;;;20.26
66170;BMP280;52971;44.024;20.456;2022-07-25T01:55:35;98159.97;;;20.18
66170;BMP280;52971;44.024;20.456;2022-07-25T01:58:01;98152.78;;;20.26
66170;BMP280;52971;44.024;20.456;2022-07-25T02:00:26;98161.38;;;20.08
66170;BMP280;52971;44.024;20.456;2022-07-25T02:02:52;98163.88;;;19.98
66170;BMP280;52971;44.024;20.456;2022-07-25T02:05:37;98173.81;;;19.94
66170;BMP280;52971;44.024;20.456;2022-07-25T02:08:03;98163.44;;;19.92
66170;BMP280;52971;44.024;20.456;2022-07-25T02:10:28;98154.44;;;19.85
66170;BMP280;52971;44.024;20.456;2022-07-25T02:12:54;98155.22;;;19.85
66170;BMP280;52971;44.024;20.456;2022-07-25T02:15:19;98153.56;;;19.77
66170;BMP280;52971;44.024;20.456;2022-07-25T02:17:45;98162.47;;;19.81
66170;BMP280;52971;44.024;20.456;2022-07-25T02:20:10;98164.84;;;19.86
66170;BMP280;52971;44.024;20.456;2022-07-25T02:22:36;98167.16;;;19.84
66170;BMP280;52971;44.024;20.456;2022-07-25T02:25:01;98169.09;;;19.87
66170;BMP280;52971;44.024;20.456;2022-07-25T02:27:27;98167.84;;;19.81
66170;BMP280;52971;44.024;20.456;2022-07-25T02:29:52;98150.75;;;19.93
66170;BMP280;52971;44.024;20.456;2022-07-25T02:32:18;98156.38;;;19.84
66170;BMP280;52971;44.024;20.456;2022-07-25T02:34:43;98148.22;;;19.81
66170;BMP280;52971;44.024;20.456;2022-07-25T02:37:09;98152.94;;;19.87
66170;BMP280;52971;44.024;20.456;2022-07-25T02:39:34;98163.28;;;19.85
66170;BMP280;52971;44.024;20.456;2022-07-25T02:41:59;98161.75;;;19.84
66170;BMP280;52971;44.024;20.456;2022-07-25T02:44:25;98164.38;;;19.81
66170;BMP280;52971;44.024;20.456;2022-07-25T02:46:50;98160.59;;;19.85
66170;BMP280;52971;44.024;20.456;2022-07-25T02:49:16;98159.59;;;19.71
66170;BMP280;52971;44.024;20.456;2022-07-25T02:51:41;98166.91;;;19.70
66170;BMP280;52971;44.024;20.456;2022-07-25T02:54:07;98174.69;;;19.75
66170;BMP280;52971;44.024;20.456;2022-07-25T02:56:32;98165.19;;;19.85
66170;BMP280;52971;44.024;20.456;2022-07-25T02:58:58;98167.06;;;19.81
66170;BMP280;52971;44.024;20.456;2022-07-25T03:01:23;98165.91;;;19.59
66170;BMP280;52971;44.024;20.456;2022-07-25T03:03:49;98157.94;;;19.62
66170;BMP280;52971;44.024;20.456;2022-07-25T03:06:14;98172.44;;;19.58
66170;BMP280;52971;44.024;20.456;2022-07-25T03:08:40;98161.25;;;19.56
66170;BMP280;52971;44.024;20.456;2022-07-25T03:11:05;98168.97;;;19.57
66170;BMP280;52971;44.024;20.456;2022-07-25T03:13:31;98167.66;;;19.48
66170;BMP280;52971;44.024;20.456;2022-07-25T03:15:57;98171.41;;;19.43
66170;BMP280;52971;44.024;20.456;2022-07-25T03:18:23;98172.38;;;19.54
66170;BMP280;52971;44.024;20.456;2022-07-25T03:20:48;98168.50;;;19.52
66170;BMP280;52971;44.024;20.456;2022-07-25T03:23:14;98170.06;;;19.53
66170;BMP280;52971;44.024;20.456;2022-07-25T03:25:39;98168.16;;;19.34
66170;BMP280;52971;44.024;20.456;2022-07-25T03:28:04;98167.94;;;19.43
66170;BMP280;52971;44.024;20.456;2022-07-25T03:30:30;98170.63;;;19.43
66170;BMP280;52971;44.024;20.456;2022-07-25T03:32:56;98176.34;;;19.41
66170;BMP280;52971;44.024;20.456;2022-07-25T03:35:21;98176.19;;;19.31
66170;BMP280;52971;44.024;20.456;2022-07-25T03:37:47;98175.81;;;19.32
66170;BMP280;52971;44.024;20.456;2022-07-25T03:40:13;98167.53;;;19.41
66170;BMP280;52971;44.024;20.456;2022-07-25T03:42:39;98169.50;;;19.24
66170;BMP280;52971;44.024;20.456;2022-07-25T03:45:05;98173.75;;;19.25
66170;BMP280;52971;44.024;20.456;2022-07-25T03:47:31;98181.59;;;19.15
66170;BMP280;52971;44.024;20.456;2022-07-25T03:49:56;98182.47;;;19.19
66170;BMP280;52971;44.024;20.456;2022-07-25T03:52:22;98182.13;;;19.20
66170;BMP280;52971;44.024;20.456;2022-07-25T03:54:48;98186.06;;;19.07
66170;BMP280;52971;44.024;20.456;2022-07-25T03:57:14;98174.78;;;19.17
66170;BMP280;52971;44.024;20.456;2022-07-25T03:59:39;98179.78;;;19.19
66170;BMP280;52971;44.024;20.456;2022-07-25T04:02:05;98180.25;;;19.24
66170;BMP280;52971;44.024;20.456;2022-07-25T04:04:30;98185.59;;;19.21
66170;BMP280;52971;44.024;20.456;2022-07-25T04:06:56;98180.25;;;19.24
66170;BMP280;52971;44.024;20.456;2022-07-25T04:09:21;98180.44;;;19.32
66170;BMP280;52971;44.024;20.456;2022-07-25T04:11:47;98178.97;;;19.38
66170;BMP280;52971;44.024;20.456;2022-07-25T04:14:12;98185.31;;;19.45
66170;BMP280;52971;44.024;20.456;2022-07-25T04:16:39;98175.59;;;19.41
66170;BMP280;52971;44.024;20.456;2022-07-25T04:19:05;98176.47;;;19.45
66170;BMP280;52971;44.024;20.456;2022-07-25T04:21:30;98186.25;;;19.56
66170;BMP280;52971;44.024;20.456;2022-07-25T04:23:56;98183.56;;;19.37
66170;BMP280;52971;44.024;20.456;2022-07-25T04:26:21;98174.88;;;19.44
66170;BMP280;52971;44.024;20.456;2022-07-25T04:28:47;98184.28;;;19.53
66170;BMP280;52971;44.024;20.456;2022-07-25T04:31:12;98179.09;;;19.64
66170;BMP280;52971;44.024;20.456;2022-07-25T04:33:39;98180.66;;;19.65
66170;BMP280;52971;44.024;20.456;2022-07-25T04:36:05;98179.63;;;19.73
66170;BMP280;52971;44.024;20.456;2022-07-25T04:38:31;98187.13;;;19.83
66170;BMP280;52971;44.024;20.456;2022-07-25T04:40:56;98185.00;;;19.73
66170;BMP280;52971;44.024;20.456;2022-07-25T04:43:22;98178.31;;;19.86
66170;BMP280;52971;44.024;20.456;2022-07-25T04:45:47;98179.28;;;19.97
66170;BMP280;52971;44.024;20.456;2022-07-25T04:48:13;98184.72;;;20.01
66170;BMP280;52971;44.024;20.456;2022-07-25T04:50:38;98179.16;;;19.90
66170;BMP280;52971;44.024;20.456;2022-07-25T04:53:04;98177.53;;;19.86
66170;BMP280;52971;44.024;20.456;2022-07-25T04:55:31;98175.66;;;20.13
66170;BMP280;52971;44.024;20.456;2022-07-25T04:58:00;98179.50;;;20.12
66170;BMP280;52971;44.024;20.456;2022-07-25T05:00:26;98172.38;;;20.23
66170;BMP280;52971;44.024;20.456;2022-07-25T05:02:51;98176.06;;;20.37
66170;BMP280;52971;44.024;20.456;2022-07-25T05:05:17;98173.94;;;20.50
66170;BMP280;52971;44.024;20.456;2022-07-25T05:07:43;98172.56;;;20.63
66170;BMP280;52971;44.024;20.456;2022-07-25T05:10:08;98183.44;;;20.70
66170;BMP280;52971;44.024;20.456;2022-07-25T05:12:34;98177.91;;;20.89
66170;BMP280;52971;44.024;20.456;2022-07-25T05:15:00;98172.38;;;21.09
66170;BMP280;52971;44.024;20.456;2022-07-25T05:17:26;98175.78;;;21.06
66170;BMP280;52971;44.024;20.456;2022-07-25T05:19:51;98174.34;;;21.15
66170;BMP280;52971;44.024;20.456;2022-07-25T05:22:17;98169.72;;;21.16
66170;BMP280;52971;44.024;20.456;2022-07-25T05:24:42;98166.56;;;21.44
66170;BMP280;52971;44.024;20.456;2022-07-25T05:27:07;98171.19;;;21.43
66170;BMP280;52971;44.024;20.456;2022-07-25T05:29:33;98180.09;;;21.47
66170;BMP280;52971;44.024;20.456;2022-07-25T05:31:59;98166.38;;;21.66
66170;BMP280;52971;44.024;20.456;2022-07-25T05:34:24;98160.75;;;21.82
66170;BMP280;52971;44.024;20.456;2022-07-25T05:36:50;98164.94;;;21.80
66170;BMP280;52971;44.024;20.456;2022-07-25T05:39:15;98160.31;;;21.80
66170;BMP280;52971;44.024;20.456;2022-07-25T05:41:41;98157.81;;;22.05
66170;BMP280;52971;44.024;20.456;2022-07-25T05:44:06;98151.28;;;22.06
66170;BMP280;52971;44.024;20.456;2022-07-25T05:46:32;98151.06;;;22.32
66170;BMP280;52971;44.024;20.456;2022-07-25T05:48:58;98149.91;;;22.37
66170;BMP280;52971;44.024;20.456;2022-07-25T05:51:23;98147.25;;;22.44
66170;BMP280;52971;44.024;20.456;2022-07-25T05:53:48;98145.72;;;22.50
66170;BMP280;52971;44.024;20.456;2022-07-25T05:56:14;98138.06;;;22.70
66170;BMP280;52971;44.024;20.456;2022-07-25T05:58:39;98141.63;;;22.88
66170;BMP280;52971;44.024;20.456;2022-07-25T06:01:06;98140.53;;;23.07
66170;BMP280;52971;44.024;20.456;2022-07-25T06:03:32;98139.03;;;23.44
66170;BMP280;52971;44.024;20.456;2022-07-25T06:05:58;98148.72;;;23.63
66170;BMP280;52971;44.024;20.456;2022-07-25T06:08:24;98138.25;;;23.48
66170;BMP280;52971;44.024;20.456;2022-07-25T06:10:52;98137.50;;;23.65
66170;BMP280;52971;44.024;20.456;2022-07-25T06:13:18;98143.28;;;23.77
66170;BMP280;52971;44.024;20.456;2022-07-25T06:15:43;98152.53;;;23.98
66170;BMP280;52971;44.024;20.456;2022-07-25T06:18:09;98138.56;;;24.20
66170;BMP280;52971;44.024;20.456;2022-07-25T06:20:34;98138.50;;;24.38
66170;BMP280;52971;44.024;20.456;2022-07-25T06:23:00;98136.47;;;24.67
66170;BMP280;52971;44.024;20.456;2022-07-25T06:25:27;98137.25;;;24.60
66170;BMP280;52971;44.024;20.456;2022-07-25T06:27:52;98132.94;;;24.73
66170;BMP280;52971;44.024;20.456;2022-07-25T06:30:18;98141.00;;;24.88
66170;BMP280;52971;44.024;20.456;2022-07-25T06:32:43;98138.53;;;25.11
66170;BMP280;52971;44.024;20.456;2022-07-25T06:35:09;98120.81;;;25.44
66170;BMP280;52971;44.024;20.456;2022-07-25T06:37:37;98118.78;;;25.51
66170;BMP280;52971;44.024;20.456;2022-07-25T06:40:04;98124.13;;;25.62
66170;BMP280;52971;44.024;20.456;2022-07-25T06:42:30;98122.06;;;25.77
66170;BMP280;52971;44.024;20.456;2022-07-25T06:44:57;98119.97;;;25.91
66170;BMP280;52971;44.024;20.456;2022-07-25T06:47:23;98117.44;;;26.07
66170;BMP280;52971;44.024;20.456;2022-07-25T06:49:48;98112.59;;;26.26
66170;BMP280;52971;44.024;20.456;2022-07-25T06:52:13;98109.47;;;26.54
66170;BMP280;52971;44.024;20.456;2022-07-25T06:54:40;98109.13;;;26.52
66170;BMP280;52971;44.024;20.456;2022-07-25T06:57:05;98102.06;;;26.58
66170;BMP280;52971;44.024;20.456;2022-07-25T06:59:31;98110.47;;;26.67
66170;BMP280;52971;44.024;20.456;2022-07-25T07:01:57;98098.63;;;26.81
66170;BMP280;52971;44.024;20.456;2022-07-25T07:04:23;98101.88;;;26.95
66170;BMP280;52971;44.024;20.456;2022-07-25T07:06:48;98109.25;;;27.22
66170;BMP280;52971;44.024;20.456;2022-07-25T07:09:14;98104.34;;;27.60
66170;BMP280;52971;44.024;20.456;2022-07-25T07:11:40;98096.03;;;27.43
66170;BMP280;52971;44.024;20.456;2022-07-25T07:14:05;98103.81;;;27.45
66170;BMP280;52971;44.024;20.456;2022-07-25T07:16:31;98100.44;;;27.61
66170;BMP280;52971;44.024;20.456;2022-07-25T07:18:57;98093.19;;;27.70
66170;BMP280;52971;44.024;20.456;2022-07-25T07:21:23;98090.13;;;27.88
66170;BMP280;52971;44.024;20.456;2022-07-25T07:23:49;98097.75;;;27.96
66170;BMP280;52971;44.024;20.456;2022-07-25T07:26:14;98097.06;;;27.92
66170;BMP280;52971;44.024;20.456;2022-07-25T07:28:40;98083.28;;;28.19
66170;BMP280;52971;44.024;20.456;2022-07-25T07:31:06;98093.00;;;28.20
66170;BMP280;52971;44.024;20.456;2022-07-25T07:33:31;98085.78;;;28.46
66170;BMP280;52971;44.024;20.456;2022-07-25T07:35:58;98080.72;;;28.64
66170;BMP280;52971;44.024;20.456;2022-07-25T07:38:24;98084.53;;;28.83
66170;BMP280;52971;44.024;20.456;2022-07-25T07:40:49;98080.88;;;28.89
66170;BMP280;52971;44.024;20.456;2022-07-25T07:43:15;98082.25;;;28.97
66170;BMP280;52971;44.024;20.456;2022-07-25T07:45:42;98087.84;;;29.23
66170;BMP280;52971;44.024;20.456;2022-07-25T07:48:07;98086.44;;;29.31
66170;BMP280;52971;44.024;20.456;2022-07-25T07:50:33;98091.66;;;29.41
66170;BMP280;52971;44.024;20.456;2022-07-25T07:53:02;98084.81;;;29.33
66170;BMP280;52971;44.024;20.456;2022-07-25T07:55:28;98072.47;;;29.29
66170;BMP280;52971;44.024;20.456;2022-07-25T07:58:15;98082.53;;;29.32
66170;BMP280;52971;44.024;20.456;2022-07-25T08:00:42;98080.75;;;29.54
66170;BMP280;52971;44.024;20.456;2022-07-25T08:03:08;98076.97;;;29.64
66170;BMP280;52971;44.024;20.456;2022-07-25T08:05:44;98079.22;;;29.94
66170;BMP280;52971;44.024;20.456;2022-07-25T08:08:12;98083.63;;;30.17
66170;BMP280;52971;44.024;20.456;2022-07-25T08:10:42;98083.84;;;29.97
66170;BMP280;52971;44.024;20.456;2022-07-25T08:13:12;98082.50;;;29.89
66170;BMP280;52971;44.024;20.456;2022-07-25T08:15:40;98085.28;;;30.02
66170;BMP280;52971;44.024;20.456;2022-07-25T08:18:06;98073.34;;;30.34
66170;BMP280;52971;44.024;20.456;2022-07-25T08:20:32;98084.53;;;30.39
66170;BMP280;52971;44.024;20.456;2022-07-25T08:22:57;98077.84;;;30.40
66170;BMP280;52971;44.024;20.456;2022-07-25T08:25:22;98077.41;;;30.55
66170;BMP280;52971;44.024;20.456;2022-07-25T08:27:48;98080.13;;;30.67
66170;BMP280;52971;44.024;20.456;2022-07-25T08:30:15;98075.47;;;30.89
66170;BMP280;52971;44.024;20.456;2022-07-25T08:35:16;98072.44;;;30.75
66170;BMP280;52971;44.024;20.456;2022-07-25T08:37:42;98072.81;;;30.98
66170;BMP280;52971;44.024;20.456;2022-07-25T08:40:08;98074.09;;;31.07
66170;BMP280;52971;44.024;20.456;2022-07-25T08:42:34;98072.31;;;31.13
66170;BMP280;52971;44.024;20.456;2022-07-25T08:45:03;98072.22;;;31.16
66170;BMP280;52971;44.024;20.456;2022-07-25T08:47:29;98074.16;;;31.28
66170;BMP280;52971;44.024;20.456;2022-07-25T08:49:55;98079.94;;;31.52
66170;BMP280;52971;44.024;20.456;2022-07-25T08:52:22;98074.13;;;31.50
66170;BMP280;52971;44.024;20.456;2022-07-25T08:54:49;98077.19;;;31.52
66170;BMP280;52971;44.024;20.456;2022-07-25T08:57:15;98076.44;;;31.73
66170;BMP280;52971;44.024;20.456;2022-07-25T08:59:42;98071.84;;;31.48
66170;BMP280;52971;44.024;20.456;2022-07-25T09:02:12;98068.44;;;31.97
66170;BMP280;52971;44.024;20.456;2022-07-25T09:04:38;98061.75;;;31.98
66170;BMP280;52971;44.024;20.456;2022-07-25T09:07:03;98065.06;;;31.62
66170;BMP280;52971;44.024;20.456;2022-07-25T09:09:33;98058.19;;;31.88
66170;BMP280;52971;44.024;20.456;2022-07-25T09:11:59;98054.56;;;31.91
66170;BMP280;52971;44.024;20.456;2022-07-25T09:14:25;98062.41;;;32.11
66170;BMP280;52971;44.024;20.456;2022-07-25T09:16:51;98044.09;;;32.57
66170;BMP280;52971;44.024;20.456;2022-07-25T09:19:20;98051.13;;;32.85
66170;BMP280;52971;44.024;20.456;2022-07-25T09:24:26;98045.50;;;32.89
66170;BMP280;52971;44.024;20.456;2022-07-25T09:26:55;98059.94;;;32.53
66170;BMP280;52971;44.024;20.456;2022-07-25T09:29:24;98055.69;;;32.61
66170;BMP280;52971;44.024;20.456;2022-07-25T09:31:51;98051.91;;;32.77
66170;BMP280;52971;44.024;20.456;2022-07-25T09:34:35;98050.38;;;33.12
66170;BMP280;52971;44.024;20.456;2022-07-25T09:37:03;98049.16;;;33.04
66170;BMP280;52971;44.024;20.456;2022-07-25T09:42:17;98048.03;;;33.29
66170;BMP280;52971;44.024;20.456;2022-07-25T09:44:55;98037.84;;;33.20
66170;BMP280;52971;44.024;20.456;2022-07-25T09:47:21;98033.66;;;33.43
66170;BMP280;52971;44.024;20.456;2022-07-25T09:49:46;98041.91;;;33.94
66170;BMP280;52971;44.024;20.456;2022-07-25T09:52:12;98044.25;;;33.77
66170;BMP280;52971;44.024;20.456;2022-07-25T09:54:39;98032.88;;;34.64
66170;BMP280;52971;44.024;20.456;2022-07-25T09:57:05;98041.22;;;34.55
66170;BMP280;52971;44.024;20.456;2022-07-25T09:59:35;98032.97;;;35.08
66170;BMP280;52971;44.024;20.456;2022-07-25T10:02:10;98034.78;;;34.58
66170;BMP280;52971;44.024;20.456;2022-07-25T10:04:50;98035.34;;;35.45
66170;BMP280;52971;44.024;20.456;2022-07-25T10:07:23;98034.56;;;36.74
66170;BMP280;52971;44.024;20.456;2022-07-25T10:09:53;98027.97;;;37.29
66170;BMP280;52971;44.024;20.456;2022-07-25T10:12:21;98021.28;;;37.78
66170;BMP280;52971;44.024;20.456;2022-07-25T10:15:23;98023.56;;;38.38
66170;BMP280;52971;44.024;20.456;2022-07-25T10:17:48;98020.84;;;38.66
66170;BMP280;52971;44.024;20.456;2022-07-25T10:20:26;98012.53;;;38.55
66170;BMP280;52971;44.024;20.456;2022-07-25T10:22:52;98023.56;;;38.49
66170;BMP280;52971;44.024;20.456;2022-07-25T10:25:18;98019.59;;;39.22
66170;BMP280;52971;44.024;20.456;2022-07-25T10:27:49;98014.47;;;38.32
66170;BMP280;52971;44.024;20.456;2022-07-25T10:30:24;98014.50;;;38.49
66170;BMP280;52971;44.024;20.456;2022-07-25T10:33:02;98001.94;;;38.70
66170;BMP280;52971;44.024;20.456;2022-07-25T10:35:29;97999.94;;;38.92
66170;BMP280;52971;44.024;20.456;2022-07-25T10:37:57;98012.75;;;37.81
66170;BMP280;52971;44.024;20.456;2022-07-25T10:43:18;97998.94;;;38.90
66170;BMP280;52971;44.024;20.456;2022-07-25T10:46:10;97993.13;;;38.71
66170;BMP280;52971;44.024;20.456;2022-07-25T10:48:36;97985.28;;;38.64
66170;BMP280;52971;44.024;20.456;2022-07-25T10:51:07;97995.66;;;39.14
66170;BMP280;52971;44.024;20.456;2022-07-25T10:56:24;97991.91;;;39.91
66170;BMP280;52971;44.024;20.456;2022-07-25T10:58:54;97989.47;;;39.54
66170;BMP280;52971;44.024;20.456;2022-07-25T11:01:23;97989.81;;;39.06
66170;BMP280;52971;44.024;20.456;2022-07-25T11:03:51;97985.41;;;40.23
66170;BMP280;52971;44.024;20.456;2022-07-25T11:08:54;97973.81;;;39.73
66170;BMP280;52971;44.024;20.456;2022-07-25T11:11:35;97967.06;;;39.41
66170;BMP280;52971;44.024;20.456;2022-07-25T11:14:01;97958.59;;;38.72
66170;BMP280;52971;44.024;20.456;2022-07-25T11:16:26;97955.78;;;39.00
66170;BMP280;52971;44.024;20.456;2022-07-25T11:18:52;97947.88;;;39.37
66170;BMP280;52971;44.024;20.456;2022-07-25T11:21:21;97944.22;;;38.79
66170;BMP280;52971;44.024;20.456;2022-07-25T11:23:52;97934.50;;;38.03
66170;BMP280;52971;44.024;20.456;2022-07-25T11:26:18;97935.81;;;38.24
66170;BMP280;52971;44.024;20.456;2022-07-25T11:28:46;97937.31;;;37.49
66170;BMP280;52971;44.024;20.456;2022-07-25T11:31:13;97929.53;;;36.80
66170;BMP280;52971;44.024;20.456;2022-07-25T11:33:42;97921.16;;;36.23
66170;BMP280;52971;44.024;20.456;2022-07-25T11:36:08;97928.84;;;35.93
66170;BMP280;52971;44.024;20.456;2022-07-25T11:38:35;97925.66;;;35.25
66170;BMP280;52971;44.024;20.456;2022-07-25T11:41:01;97925.69;;;34.81
66170;BMP280;52971;44.024;20.456;2022-07-25T11:43:27;97920.09;;;34.61
66170;BMP280;52971;44.024;20.456;2022-07-25T11:46:03;97916.09;;;34.91
66170;BMP280;52971;44.024;20.456;2022-07-25T11:48:33;97922.22;;;35.45
66170;BMP280;52971;44.024;20.456;2022-07-25T11:51:09;97915.72;;;34.84
66170;BMP280;52971;44.024;20.456;2022-07-25T11:53:40;97909.31;;;34.34
66170;BMP280;52971;44.024;20.456;2022-07-25T11:56:14;97899.56;;;34.09
66170;BMP280;52971;44.024;20.456;2022-07-25T11:58:39;97901.91;;;34.40
66170;BMP280;52971;44.024;20.456;2022-07-25T12:01:13;97905.53;;;34.46
66170;BMP280;52971;44.024;20.456;2022-07-25T12:03:39;97906.47;;;34.43
66170;BMP280;52971;44.024;20.456;2022-07-25T12:06:12;97909.56;;;34.74
66170;BMP280;52971;44.024;20.456;2022-07-25T12:08:39;97900.66;;;34.02
66170;BMP280;52971;44.024;20.456;2022-07-25T12:11:19;97895.63;;;34.01
66170;BMP280;52971;44.024;20.456;2022-07-25T12:13:45;97890.81;;;34.49
66170;BMP280;52971;44.024;20.456;2022-07-25T12:16:11;97897.75;;;34.73
66170;BMP280;52971;44.024;20.456;2022-07-25T12:18:37;97887.94;;;34.87
66170;BMP280;52971;44.024;20.456;2022-07-25T12:21:02;97889.22;;;34.86
66170;BMP280;52971;44.024;20.456;2022-07-25T12:23:28;97883.88;;;34.68
66170;BMP280;52971;44.024;20.456;2022-07-25T12:25:53;97886.72;;;35.03
66170;BMP280;52971;44.024;20.456;2022-07-25T12:28:19;97882.69;;;35.04
66170;BMP280;52971;44.024;20.456;2022-07-25T12:30:45;97866.09;;;34.40
66170;BMP280;52971;44.024;20.456;2022-07-25T12:33:11;97864.50;;;34.09
66170;BMP280;52971;44.024;20.456;2022-07-25T12:35:39;97874.22;;;34.19
66170;BMP280;52971;44.024;20.456;2022-07-25T12:38:04;97861.84;;;34.39
66170;BMP280;52971;44.024;20.456;2022-07-25T12:40:30;97857.47;;;34.76
66170;BMP280;52971;44.024;20.456;2022-07-25T12:42:55;97859.38;;;35.19
66170;BMP280;52971;44.024;20.456;2022-07-25T12:45:22;97855.88;;;35.04
66170;BMP280;52971;44.024;20.456;2022-07-25T12:47:47;97857.44;;;34.91
66170;BMP280;52971;44.024;20.456;2022-07-25T12:50:14;97855.22;;;35.44
66170;BMP280;52971;44.024;20.456;2022-07-25T12:52:40;97849.81;;;35.35
66170;BMP280;52971;44.024;20.456;2022-07-25T12:55:11;97849.22;;;35.46
66170;BMP280;52971;44.024;20.456;2022-07-25T12:57:37;97848.50;;;35.51
66170;BMP280;52971;44.024;20.456;2022-07-25T13:00:08;97838.16;;;35.86
66170;BMP280;52971;44.024;20.456;2022-07-25T13:02:34;97834.69;;;35.91
66170;BMP280;52971;44.024;20.456;2022-07-25T13:05:00;97839.97;;;35.49
66170;BMP280;52971;44.024;20.456;2022-07-25T13:07:26;97835.69;;;35.88
66170;BMP280;52971;44.024;20.456;2022-07-25T13:09:51;97831.56;;;35.83
66170;BMP280;52971;44.024;20.456;2022-07-25T13:12:17;97826.31;;;36.06
66170;BMP280;52971;44.024;20.456;2022-07-25T13:14:42;97829.00;;;36.52
66170;BMP280;52971;44.024;20.456;2022-07-25T13:17:08;97817.69;;;36.24
66170;BMP280;52971;44.024;20.456;2022-07-25T13:19:33;97821.44;;;35.55
66170;BMP280;52971;44.024;20.456;2022-07-25T13:21:59;97820.78;;;35.40
66170;BMP280;52971;44.024;20.456;2022-07-25T13:24:24;97820.94;;;35.97
66170;BMP280;52971;44.024;20.456;2022-07-25T13:26:50;97817.19;;;35.54
66170;BMP280;52971;44.024;20.456;2022-07-25T13:29:15;97817.53;;;35.41
66170;BMP280;52971;44.024;20.456;2022-07-25T13:31:41;97809.41;;;35.72
66170;BMP280;52971;44.024;20.456;2022-07-25T13:34:07;97808.75;;;35.83
66170;BMP280;52971;44.024;20.456;2022-07-25T13:36:34;97805.63;;;35.96
66170;BMP280;52971;44.024;20.456;2022-07-25T13:39:00;97804.72;;;36.04
66170;BMP280;52971;44.024;20.456;2022-07-25T13:41:26;97803.13;;;36.23
66170;BMP280;52971;44.024;20.456;2022-07-25T13:43:52;97791.78;;;36.16
66170;BMP280;52971;44.024;20.456;2022-07-25T13:46:18;97792.56;;;35.50
66170;BMP280;52971;44.024;20.456;2022-07-25T13:48:44;97802.97;;;35.81
66170;BMP280;52971;44.024;20.456;2022-07-25T13:51:09;97797.03;;;35.48
66170;BMP280;52971;44.024;20.456;2022-07-25T13:53:35;97794.53;;;35.70
66170;BMP280;52971;44.024;20.456;2022-07-25T13:56:01;97792.81;;;35.52
66170;BMP280;52971;44.024;20.456;2022-07-25T13:58:26;97792.47;;;35.65
66170;BMP280;52971;44.024;20.456;2022-07-25T14:00:52;97787.59;;;35.34
66170;BMP280;52971;44.024;20.456;2022-07-25T14:03:18;97789.88;;;35.15
66170;BMP280;52971;44.024;20.456;2022-07-25T14:05:43;97787.63;;;34.99
66170;BMP280;52971;44.024;20.456;2022-07-25T14:08:09;97783.72;;;35.26
66170;BMP280;52971;44.024;20.456;2022-07-25T14:10:34;97781.25;;;35.68